To NAV CANADA Home Page Login to a new session Search on AWWS site Disclaimer Vers la page française équivalente Tips FAQ What's new on the site To the Forecasts and Observations / NOTAM section To "File a Flight Plan" website Publications and other links Update of the User's profile FIC Telephone Numbers My Weather Data Folder Route Weather Data Regional Weather Data Local Weather Data To the Forecasts and Observations / NOTAM section
Request Generated 06/15/2019 at 22:40:04 UTC . Weather information available at that time is displayed.

METAR/TAF

CHATHAM-KENT/ON    (show WxCam)

SPECI CYCK 152219Z AUTO 25007KT 9SM BKN024 OVC090 19/17 A2984 RMK SLP105 DENSITY ALT 1300FT=
METAR CYCK 152200Z AUTO 24010G15KT 9SM BKN090 BKN130 19/17 A2984 RMK SLP103 DENSITY ALT 1200FT=
SPECI CYCK 152139Z AUTO 24012KT 9SM SCT014 BKN085 BKN130 BKN220 19/17 A2984 RMK SLP104 DENSITY ALT 1300FT=
METAR CYCK 152100Z AUTO 23014G19KT 9SM OVC012 19/17 A2986 RMK SLP111 DENSITY ALT 1200FT=
METAR CYCK 152000Z AUTO 23017KT 9SM OVC018 18/17 A2987 RMK SLP114 DENSITY ALT 1200FT=

CYCK - No TAF is issued for this station

Your time UTC time
Weather data provided by Environment Canada and NAV CANADA